createdAt,value
2023-02-11T00:00:43.330Z,36.22
2023-02-11T00:01:45.698Z,34.75
2023-02-11T00:02:48.300Z,35.00
2023-02-11T00:03:51.163Z,33.42
2023-02-11T00:04:53.617Z,35.97
2023-02-11T00:06:04.709Z,35.83
2023-02-11T00:07:07.289Z,33.65
2023-02-11T00:08:09.651Z,34.03
2023-02-11T00:09:12.634Z,35.63
2023-02-11T00:10:15.101Z,33.05
2023-02-11T00:11:19.011Z,35.42
2023-02-11T00:12:21.696Z,36.38
2023-02-11T00:13:24.867Z,35.42
2023-02-11T00:14:27.546Z,32.40
2023-02-11T00:15:29.963Z,32.60
2023-02-11T00:16:33.047Z,34.58
2023-02-11T00:17:35.970Z,33.25
2023-02-11T00:18:38.716Z,34.10
2023-02-11T00:19:41.367Z,33.28
2023-02-11T00:20:43.913Z,33.03
2023-02-11T00:21:46.428Z,34.55
2023-02-11T00:22:48.773Z,32.85
2023-02-11T00:23:51.779Z,32.53
2023-02-11T00:24:54.368Z,32.83
2023-02-11T00:25:56.765Z,33.05
2023-02-11T00:26:59.253Z,32.88
2023-02-11T00:28:01.701Z,32.13
2023-02-11T00:29:05.359Z,32.90
2023-02-11T00:30:08.445Z,31.90
2023-02-11T00:31:11.947Z,31.98
2023-02-11T00:32:14.522Z,32.40
2023-02-11T00:33:16.830Z,33.25
2023-02-11T00:34:19.642Z,31.75
2023-02-11T00:35:22.447Z,32.03
2023-02-11T00:36:27.372Z,32.47
2023-02-11T00:37:30.130Z,32.80
2023-02-11T00:38:32.674Z,32.95
2023-02-11T00:39:37.204Z,32.80
2023-02-11T00:40:39.782Z,29.20
2023-02-11T00:41:42.222Z,32.70
2023-02-11T00:42:44.680Z,30.38
2023-02-11T00:43:47.415Z,29.60
2023-02-11T00:44:49.969Z,30.42
2023-02-11T00:45:52.771Z,28.77
2023-02-11T00:46:55.339Z,30.45
2023-02-11T00:47:57.918Z,29.27
2023-02-11T00:49:00.370Z,30.38
2023-02-11T00:50:05.424Z,32.55
2023-02-11T00:51:08.378Z,30.85
2023-02-11T00:52:10.785Z,29.98
2023-02-11T00:53:13.236Z,30.63
2023-02-11T00:54:15.598Z,30.23
2023-02-11T00:55:19.008Z,32.42
2023-02-11T00:56:21.537Z,28.98
2023-02-11T00:57:24.901Z,31.90
2023-02-11T00:58:28.419Z,28.15
2023-02-11T00:59:30.974Z,28.60
2023-02-11T01:00:33.489Z,30.50
2023-02-11T01:01:36.114Z,30.27
2023-02-11T01:02:38.699Z,30.70
2023-02-11T01:03:41.624Z,29.98
2023-02-11T01:04:44.090Z,31.23
2023-02-11T01:05:46.687Z,28.63
2023-02-11T01:06:49.200Z,27.42
2023-02-11T01:07:51.610Z,29.42
2023-02-11T01:08:54.102Z,28.15
2023-02-11T01:09:57.058Z,29.63
2023-02-11T01:11:02.916Z,30.50
2023-02-11T01:12:05.780Z,28.63
2023-02-11T01:13:08.073Z,28.33
2023-02-11T01:14:10.630Z,30.42
2023-02-11T01:15:16.931Z,32.33
2023-02-11T01:16:21.023Z,27.88
2023-02-11T01:17:24.008Z,28.92
2023-02-11T01:18:26.900Z,29.98
2023-02-11T01:19:29.436Z,29.48
2023-02-11T01:20:32.097Z,28.75
2023-02-11T01:21:34.555Z,27.77
2023-02-11T01:22:39.714Z,29.63
2023-02-11T01:23:42.690Z,29.50
2023-02-11T01:24:47.433Z,28.23
2023-02-11T01:25:50.844Z,25.77
2023-02-11T01:26:54.081Z,28.10
2023-02-11T01:27:56.690Z,26.88
2023-02-11T01:29:01.079Z,29.10
2023-02-11T01:31:06.552Z,27.08
2023-02-11T01:32:09.207Z,26.77
2023-02-11T01:33:12.775Z,26.08
2023-02-11T01:34:15.329Z,27.92
2023-02-11T01:35:17.841Z,27.85
2023-02-11T01:36:20.432Z,27.48
2023-02-11T01:37:23.217Z,29.08
2023-02-11T01:38:26.750Z,27.48
2023-02-11T01:39:29.132Z,27.05
2023-02-11T01:40:31.624Z,28.38
2023-02-11T01:41:34.016Z,25.23
2023-02-11T01:42:36.402Z,25.48
2023-02-11T01:43:42.740Z,26.42
2023-02-11T01:44:45.369Z,27.25
2023-02-11T01:45:47.661Z,26.48
2023-02-11T01:46:50.279Z,26.80
2023-02-11T01:47:54.904Z,26.88
2023-02-11T01:49:18.704Z,26.35
2023-02-11T01:50:21.242Z,25.25
2023-02-11T01:51:45.018Z,25.15
2023-02-11T01:52:48.072Z,23.35
2023-02-11T01:54:10.895Z,26.70
2023-02-11T01:55:33.102Z,24.88
2023-02-11T01:57:01.415Z,25.23
2023-02-11T01:58:05.384Z,24.20
2023-02-11T01:59:17.517Z,26.50
2023-02-11T02:00:33.902Z,25.33
2023-02-11T02:01:39.134Z,24.92
2023-02-11T02:02:52.889Z,26.60
2023-02-11T02:04:00.853Z,27.45
2023-02-11T02:05:16.852Z,24.75
2023-02-11T02:06:26.651Z,24.48
2023-02-11T02:07:43.104Z,26.55
2023-02-11T02:08:57.906Z,26.80
2023-02-11T02:10:07.775Z,26.73
2023-02-11T02:11:11.938Z,26.25
2023-02-11T02:12:14.429Z,26.83
2023-02-11T02:13:17.935Z,26.52
2023-02-11T02:14:20.858Z,27.75
2023-02-11T02:15:25.374Z,26.52
2023-02-11T02:17:46.716Z,23.98
2023-02-11T02:19:23.325Z,25.27
2023-02-11T02:20:50.307Z,23.92
2023-02-11T02:22:10.789Z,25.15
2023-02-11T02:23:31.944Z,24.70
2023-02-11T02:25:01.205Z,26.02
2023-02-11T02:26:22.222Z,23.65
2023-02-11T02:27:46.051Z,26.02
2023-02-11T02:28:48.269Z,24.42
2023-02-11T02:30:12.151Z,24.83
2023-02-11T02:31:52.574Z,25.95
2023-02-11T02:33:21.606Z,23.38
2023-02-11T02:34:57.505Z,22.92
2023-02-11T02:36:22.719Z,24.80
2023-02-11T02:37:34.914Z,24.63
2023-02-11T02:38:39.989Z,25.80
2023-02-11T02:40:50.554Z,24.77
2023-02-11T02:41:54.627Z,23.77
2023-02-11T02:42:58.946Z,25.25
2023-02-11T02:44:01.988Z,26.17
2023-02-11T02:45:04.809Z,24.90
2023-02-11T02:46:31.808Z,26.35
2023-02-11T02:47:34.194Z,24.33
2023-02-11T02:48:36.429Z,25.83
2023-02-11T02:49:38.727Z,27.00
2023-02-11T02:50:41.378Z,27.67
2023-02-11T02:52:00.344Z,26.13
2023-02-11T02:53:11.892Z,24.10
2023-02-11T02:54:34.320Z,25.33
2023-02-11T02:56:12.553Z,24.58
2023-02-11T02:57:33.015Z,24.05
2023-02-11T02:58:54.135Z,25.15
2023-02-11T03:00:14.793Z,26.00
2023-02-11T03:01:30.020Z,25.40
2023-02-11T03:02:50.587Z,26.13
2023-02-11T03:04:27.249Z,25.27
2023-02-11T03:05:51.352Z,26.20
2023-02-11T03:07:16.490Z,24.42
2023-02-11T03:08:32.677Z,24.17
2023-02-11T03:09:46.114Z,26.08
2023-02-11T03:10:51.651Z,25.25
2023-02-11T03:11:54.351Z,25.80
2023-02-11T03:12:58.062Z,25.38
2023-02-11T03:14:03.860Z,25.55
2023-02-11T03:15:07.588Z,27.38
2023-02-11T03:16:15.442Z,28.80
2023-02-11T03:17:19.197Z,26.70
2023-02-11T03:18:26.543Z,25.60
2023-02-11T03:19:38.744Z,26.50
2023-02-11T03:20:44.726Z,27.42
2023-02-11T03:21:50.162Z,27.55
2023-02-11T03:22:56.175Z,26.70
2023-02-11T03:24:03.001Z,26.17
2023-02-11T03:25:05.932Z,26.65
2023-02-11T03:26:49.033Z,26.00
2023-02-11T03:28:12.147Z,26.50
2023-02-11T03:29:23.017Z,23.38
2023-02-11T03:31:54.786Z,23.38
2023-02-11T03:33:14.577Z,25.08
2023-02-11T03:34:26.718Z,24.73
2023-02-11T03:35:52.478Z,26.45
2023-02-11T03:37:00.089Z,24.92
2023-02-11T03:38:07.747Z,25.42
2023-02-11T03:39:12.281Z,26.88
2023-02-11T03:41:24.979Z,23.60
2023-02-11T03:42:33.604Z,23.83
2023-02-11T03:43:42.283Z,26.25
2023-02-11T03:44:52.081Z,28.08
2023-02-11T03:45:56.555Z,25.40
2023-02-11T03:48:07.687Z,22.00
2023-02-11T03:49:14.001Z,25.30
2023-02-11T03:50:18.304Z,27.45
2023-02-11T03:51:23.666Z,27.27
2023-02-11T03:52:27.192Z,27.88
2023-02-11T03:53:29.551Z,26.60
2023-02-11T03:54:32.139Z,30.08
2023-02-11T03:55:38.896Z,25.77
2023-02-11T03:56:52.399Z,28.98
2023-02-11T03:57:54.803Z,26.27
2023-02-11T03:58:57.623Z,27.08
2023-02-11T04:00:00.690Z,26.73
2023-02-11T04:01:05.377Z,26.15
2023-02-11T04:02:07.752Z,26.90
2023-02-11T04:03:11.386Z,25.52
2023-02-11T04:04:14.137Z,26.10
2023-02-11T04:05:16.733Z,28.23
2023-02-11T04:06:19.202Z,27.17
2023-02-11T04:07:21.714Z,25.27
2023-02-11T04:08:24.056Z,27.77
2023-02-11T04:09:26.349Z,27.58
2023-02-11T04:10:28.643Z,26.80
2023-02-11T04:11:31.054Z,25.80
2023-02-11T04:12:33.626Z,25.60
2023-02-11T04:13:35.961Z,25.77
2023-02-11T04:14:38.364Z,25.88
2023-02-11T04:15:40.926Z,26.92
2023-02-11T04:16:43.391Z,27.45
2023-02-11T04:17:46.187Z,25.98
2023-02-11T04:18:48.881Z,26.23
2023-02-11T04:19:51.520Z,24.83
2023-02-11T04:20:54.036Z,26.17
2023-02-11T04:21:56.836Z,26.15
2023-02-11T04:22:59.412Z,26.27
2023-02-11T04:24:01.916Z,28.38
2023-02-11T04:25:06.092Z,26.77
2023-02-11T04:26:08.466Z,26.83
2023-02-11T04:27:10.848Z,27.83
2023-02-11T04:28:13.302Z,25.17
2023-02-11T04:29:16.208Z,25.23
2023-02-11T04:30:18.765Z,26.38
2023-02-11T04:31:21.398Z,27.13
2023-02-11T04:32:23.835Z,26.90
2023-02-11T04:33:26.429Z,26.17
2023-02-11T04:34:29.201Z,26.02
2023-02-11T04:35:31.763Z,27.05
2023-02-11T04:36:34.200Z,25.17
2023-02-11T04:37:36.559Z,26.77
2023-02-11T04:38:38.971Z,26.35
2023-02-11T04:39:41.637Z,27.13
2023-02-11T04:40:44.054Z,26.02
2023-02-11T04:41:46.665Z,28.58
2023-02-11T04:42:49.016Z,27.13
2023-02-11T04:43:51.630Z,28.88
2023-02-11T04:44:54.066Z,28.92
2023-02-11T04:45:59.442Z,30.75
2023-02-11T04:47:02.590Z,31.40
2023-02-11T04:48:05.160Z,33.85
2023-02-11T04:49:07.774Z,30.23
2023-02-11T04:50:10.474Z,33.28
2023-02-11T04:51:12.850Z,32.22
2023-02-11T04:52:15.237Z,32.35
2023-02-11T04:53:17.636Z,32.63
2023-02-11T04:54:20.368Z,31.98
2023-02-11T04:55:22.940Z,34.05
2023-02-11T04:56:25.408Z,31.02
2023-02-11T04:57:27.734Z,31.67
2023-02-11T04:58:30.181Z,30.30
2023-02-11T04:59:32.968Z,30.73
2023-02-11T05:00:35.361Z,33.53
2023-02-11T05:01:37.749Z,30.50
2023-02-11T05:02:40.232Z,31.40
2023-02-11T05:03:43.510Z,31.45
2023-02-11T05:04:45.825Z,33.60
2023-02-11T05:05:48.547Z,34.47
2023-02-11T05:06:51.166Z,34.22
2023-02-11T05:07:54.342Z,34.47
2023-02-11T05:08:57.158Z,34.75
2023-02-11T05:10:00.201Z,36.08
2023-02-11T05:11:06.050Z,34.47
2023-02-11T05:12:08.460Z,32.72
2023-02-11T05:13:10.871Z,34.40
2023-02-11T05:14:13.383Z,34.17
2023-02-11T05:15:16.157Z,34.10
2023-02-11T05:16:19.131Z,30.35
2023-02-11T05:17:21.604Z,33.22
2023-02-11T05:18:24.371Z,35.25
2023-02-11T05:19:26.860Z,33.30
2023-02-11T05:20:29.320Z,34.53
2023-02-11T05:21:31.748Z,33.25
2023-02-11T05:22:34.100Z,32.05
2023-02-11T05:23:36.970Z,30.02
2023-02-11T05:24:39.441Z,31.08
2023-02-11T05:25:41.776Z,33.20
2023-02-11T05:26:44.329Z,33.25
2023-02-11T05:27:46.736Z,32.42
2023-02-11T05:28:49.547Z,31.63
2023-02-11T05:29:51.943Z,32.85
2023-02-11T05:30:54.567Z,31.95
2023-02-11T05:31:58.521Z,35.78
2023-02-11T05:33:00.985Z,32.40
2023-02-11T05:34:04.258Z,33.92
2023-02-11T05:35:06.949Z,36.22
2023-02-11T05:36:12.051Z,35.00
2023-02-11T05:37:14.517Z,34.33
2023-02-11T05:38:17.318Z,34.20
2023-02-11T05:39:19.797Z,34.55
2023-02-11T05:40:22.197Z,37.35
2023-02-11T05:41:24.596Z,38.97
2023-02-11T05:42:27.381Z,35.88
2023-02-11T05:43:29.833Z,36.83
2023-02-11T05:44:32.344Z,38.33
2023-02-11T05:45:34.821Z,34.90
2023-02-11T05:46:37.539Z,37.08
2023-02-11T05:47:40.053Z,40.40
2023-02-11T05:48:42.443Z,38.88
2023-02-11T05:49:45.086Z,40.65
2023-02-11T05:50:47.687Z,38.22
2023-02-11T05:51:50.165Z,38.63
2023-02-11T05:52:52.748Z,39.28
2023-02-11T05:53:55.856Z,41.28
2023-02-11T05:54:58.361Z,38.10
2023-02-11T05:56:00.842Z,40.15
2023-02-11T05:57:03.392Z,41.50
2023-02-11T05:58:06.264Z,42.10
2023-02-11T05:59:08.811Z,43.45
2023-02-11T06:00:11.976Z,42.28
2023-02-11T06:01:17.516Z,42.17
2023-02-11T06:02:20.190Z,40.83
2023-02-11T06:03:22.629Z,37.92
2023-02-11T06:04:25.003Z,44.72
2023-02-11T06:05:27.519Z,48.50
2023-02-11T06:06:30.138Z,57.03
2023-02-11T06:07:32.584Z,64.40
2023-02-11T06:08:36.480Z,57.05
2023-02-11T06:09:40.918Z,55.65
2023-02-11T06:10:45.678Z,48.90
2023-02-11T06:11:48.079Z,47.75
2023-02-11T06:12:50.437Z,47.40
2023-02-11T06:13:52.754Z,47.67
2023-02-11T06:14:55.103Z,49.15
2023-02-11T06:15:58.792Z,47.45
2023-02-11T06:17:01.394Z,46.47
2023-02-11T06:18:04.245Z,45.90
2023-02-11T06:19:06.635Z,50.15
2023-02-11T06:20:10.749Z,49.90
2023-02-11T06:21:13.248Z,49.50
2023-02-11T06:22:15.925Z,48.97
2023-02-11T06:23:18.545Z,54.53
2023-02-11T06:24:47.815Z,55.38
2023-02-11T06:25:43.274Z,55.85
2023-02-11T06:26:45.977Z,55.97
2023-02-11T06:27:48.290Z,55.90
2023-02-11T06:28:50.797Z,54.88
2023-02-11T06:29:53.169Z,56.90
2023-02-11T06:30:55.593Z,54.55
2023-02-11T06:31:58.182Z,57.00
2023-02-11T06:33:00.669Z,50.85
2023-02-11T06:34:03.060Z,55.47
2023-02-11T06:35:05.687Z,56.30
2023-02-11T06:36:19.873Z,54.92
2023-02-11T06:37:22.329Z,51.20
2023-02-11T06:38:24.666Z,49.58
2023-02-11T06:39:27.402Z,48.63
2023-02-11T06:40:29.922Z,53.00
2023-02-11T06:41:35.361Z,63.00
2023-02-11T06:42:39.429Z,59.88
2023-02-11T06:43:42.044Z,61.55
2023-02-11T06:44:44.760Z,53.22
2023-02-11T06:45:53.666Z,53.58
2023-02-11T06:46:56.044Z,50.42
2023-02-11T06:47:58.512Z,38.78
2023-02-11T06:49:00.957Z,41.10
2023-02-11T06:50:04.764Z,41.97
2023-02-11T06:51:13.237Z,40.70
2023-02-11T06:52:15.595Z,43.63
2023-02-11T06:53:17.933Z,42.10
2023-02-11T06:54:20.456Z,41.67
2023-02-11T06:55:22.790Z,38.20
2023-02-11T06:56:27.617Z,35.70
2023-02-11T06:57:31.149Z,34.40
2023-02-11T06:58:34.159Z,32.80
2023-02-11T06:59:36.574Z,26.90
2023-02-11T07:00:39.055Z,33.38
2023-02-11T07:01:42.105Z,31.73
2023-02-11T07:02:44.686Z,33.30
2023-02-11T07:03:47.457Z,33.42
2023-02-11T07:04:50.044Z,32.28
2023-02-11T07:05:52.659Z,37.60
2023-02-11T07:06:55.297Z,37.92
2023-02-11T07:07:57.638Z,38.92
2023-02-11T07:09:00.325Z,35.67
2023-02-11T07:10:06.038Z,33.10
2023-02-11T07:11:11.207Z,33.65
2023-02-11T07:12:13.520Z,33.72
2023-02-11T07:13:16.009Z,30.17
2023-02-11T07:14:18.674Z,34.20
2023-02-11T07:15:21.209Z,32.72
2023-02-11T07:16:23.963Z,26.00
2023-02-11T07:17:26.429Z,31.73
2023-02-11T07:18:31.848Z,33.08
2023-02-11T07:19:34.261Z,34.63
2023-02-11T07:20:38.916Z,33.80
2023-02-11T07:21:41.247Z,31.95
2023-02-11T07:22:43.577Z,33.58
2023-02-11T07:23:46.752Z,32.20
2023-02-11T07:24:49.059Z,32.50
2023-02-11T07:25:51.775Z,30.88
2023-02-11T07:26:54.701Z,36.33
2023-02-11T07:27:57.179Z,34.60
2023-02-11T07:28:59.778Z,29.30
2023-02-11T07:30:04.848Z,33.08
2023-02-11T07:31:16.582Z,28.90
2023-02-11T07:32:19.061Z,29.38
2023-02-11T07:33:21.578Z,31.33
2023-02-11T07:34:24.074Z,29.30
2023-02-11T07:35:26.595Z,29.48
2023-02-11T07:36:32.245Z,30.33
2023-02-11T07:37:35.704Z,31.60
2023-02-11T07:38:39.126Z,32.88
2023-02-11T07:39:43.774Z,33.45
2023-02-11T07:40:46.182Z,33.28
2023-02-11T07:41:49.490Z,33.05
2023-02-11T07:42:52.371Z,30.73
2023-02-11T07:43:55.433Z,30.95
2023-02-11T07:44:57.922Z,30.80
2023-02-11T07:46:03.259Z,28.05
2023-02-11T07:47:05.686Z,30.45
2023-02-11T07:48:08.070Z,34.22
2023-02-11T07:49:11.247Z,32.45
2023-02-11T07:50:13.756Z,34.80
2023-02-11T07:51:21.956Z,44.55
2023-02-11T07:52:24.391Z,48.90
2023-02-11T07:53:26.678Z,50.67
2023-02-11T07:54:29.045Z,61.17
2023-02-11T07:55:31.470Z,49.05
2023-02-11T07:56:34.630Z,43.38
2023-02-11T07:57:37.414Z,41.08
2023-02-11T07:58:42.334Z,42.72
2023-02-11T07:59:44.895Z,41.15
2023-02-11T08:00:47.300Z,38.40
2023-02-11T08:01:51.567Z,34.67
2023-02-11T08:03:57.777Z,31.63
2023-02-11T08:05:00.148Z,33.83
2023-02-11T08:06:07.822Z,32.08
2023-02-11T08:07:10.182Z,32.70
2023-02-11T08:08:12.702Z,28.80
2023-02-11T08:09:19.373Z,29.13
2023-02-11T08:10:23.061Z,32.10
2023-02-11T08:11:28.439Z,32.75
2023-02-11T08:12:30.968Z,31.13
2023-02-11T08:13:33.681Z,30.85
2023-02-11T08:14:36.086Z,32.53
2023-02-11T08:15:38.365Z,34.65
2023-02-11T08:16:41.547Z,31.40
2023-02-11T08:17:44.061Z,31.80
2023-02-11T08:18:47.002Z,31.67
2023-02-11T08:19:49.415Z,34.92
2023-02-11T08:20:51.990Z,32.15
2023-02-11T08:21:58.672Z,32.05
2023-02-11T08:23:02.331Z,30.77
2023-02-11T08:24:04.799Z,32.72
2023-02-11T08:25:07.436Z,30.58
2023-02-11T08:26:13.390Z,30.42
2023-02-11T08:27:16.456Z,31.15
2023-02-11T08:28:19.181Z,31.52
2023-02-11T08:29:21.468Z,30.58
2023-02-11T08:30:26.284Z,30.67
2023-02-11T08:31:34.956Z,31.25
2023-02-11T08:32:37.621Z,31.70
2023-02-11T08:33:42.835Z,29.17
2023-02-11T08:34:48.007Z,32.08
2023-02-11T08:35:50.427Z,40.85
2023-02-11T08:36:52.895Z,35.15
2023-02-11T08:37:55.487Z,38.58
2023-02-11T08:39:18.242Z,51.00
2023-02-11T08:40:21.868Z,47.88
2023-02-11T08:41:24.349Z,36.88
2023-02-11T08:42:26.811Z,35.30
2023-02-11T08:43:29.353Z,33.47
2023-02-11T08:44:31.714Z,35.13
2023-02-11T08:45:34.145Z,53.45
2023-02-11T08:46:36.590Z,41.83
2023-02-11T08:47:39.714Z,36.83
2023-02-11T08:48:42.306Z,36.45
2023-02-11T08:49:44.727Z,35.78
2023-02-11T08:50:47.456Z,34.88
2023-02-11T08:51:50.225Z,34.63
2023-02-11T08:52:52.692Z,32.97
2023-02-11T08:53:55.624Z,34.17
2023-02-11T08:54:58.965Z,31.58
2023-02-11T08:56:01.663Z,33.85
2023-02-11T08:57:04.998Z,33.80
2023-02-11T08:58:07.614Z,34.90
2023-02-11T08:59:14.315Z,34.15
2023-02-11T09:00:17.661Z,33.60
2023-02-11T09:01:27.865Z,31.10
2023-02-11T09:02:30.308Z,31.20
2023-02-11T09:03:32.644Z,33.60
2023-02-11T09:04:35.017Z,34.47
2023-02-11T09:05:48.074Z,34.03
2023-02-11T09:06:50.536Z,35.90
2023-02-11T09:07:53.022Z,35.78
2023-02-11T09:08:57.823Z,38.75
2023-02-11T09:10:00.306Z,39.22
2023-02-11T09:11:03.898Z,35.08
2023-02-11T09:12:06.483Z,36.72
2023-02-11T09:13:09.506Z,35.28
2023-02-11T09:14:21.445Z,33.22
2023-02-11T09:15:23.788Z,34.45
2023-02-11T09:16:28.910Z,33.17
2023-02-11T09:17:31.545Z,33.30
2023-02-11T09:18:34.474Z,34.60
2023-02-11T09:19:36.891Z,32.55
2023-02-11T09:20:40.281Z,34.80
2023-02-11T09:21:42.846Z,37.33
2023-02-11T09:22:45.399Z,39.63
2023-02-11T09:23:48.700Z,44.17
2023-02-11T09:24:51.202Z,42.10
2023-02-11T09:25:53.618Z,40.83
2023-02-11T09:26:55.977Z,37.97
2023-02-11T09:27:58.409Z,35.25
2023-02-11T09:29:01.808Z,34.00
2023-02-11T09:30:04.643Z,38.60
2023-02-11T09:31:11.390Z,33.17
2023-02-11T09:32:14.047Z,31.45
2023-02-11T09:33:16.998Z,36.20
2023-02-11T09:34:19.604Z,34.88
2023-02-11T09:35:22.023Z,35.85
2023-02-11T09:36:27.297Z,34.88
2023-02-11T09:37:29.659Z,30.05
2023-02-11T09:38:32.478Z,32.65
2023-02-11T09:39:34.782Z,36.20
2023-02-11T09:40:37.426Z,33.22
2023-02-11T09:41:45.894Z,34.80
2023-02-11T09:43:03.012Z,35.63
2023-02-11T09:44:10.880Z,34.92
2023-02-11T09:45:22.429Z,32.88
2023-02-11T09:46:27.731Z,34.47
2023-02-11T09:47:36.029Z,33.90
2023-02-11T09:48:44.098Z,35.17
2023-02-11T09:49:51.945Z,34.85
2023-02-11T09:51:00.620Z,35.45
2023-02-11T09:52:15.618Z,35.28
2023-02-11T09:53:25.252Z,33.70
2023-02-11T09:54:37.690Z,31.20
2023-02-11T09:55:43.332Z,35.00
2023-02-11T09:56:46.672Z,35.90
2023-02-11T09:57:49.423Z,40.78
2023-02-11T09:58:53.789Z,39.95
2023-02-11T09:59:57.837Z,43.08
2023-02-11T10:01:28.140Z,41.70
2023-02-11T10:02:30.862Z,40.22
2023-02-11T10:03:43.689Z,36.47
2023-02-11T10:05:29.518Z,32.65
2023-02-11T10:06:38.584Z,32.22
2023-02-11T10:08:02.947Z,31.45
2023-02-11T10:09:38.150Z,28.65
2023-02-11T10:10:44.915Z,32.00
2023-02-11T10:12:05.758Z,36.85
2023-02-11T10:13:10.672Z,28.58
2023-02-11T10:14:35.865Z,32.47
2023-02-11T10:16:09.472Z,29.85
2023-02-11T10:17:21.020Z,32.70
2023-02-11T10:18:39.501Z,31.45
2023-02-11T10:20:20.419Z,30.30
2023-02-11T10:22:07.003Z,31.77
2023-02-11T10:23:16.051Z,31.10
2023-02-11T10:24:19.297Z,33.08
2023-02-11T10:25:37.194Z,26.65
2023-02-11T10:26:43.625Z,31.15
2023-02-11T10:27:46.459Z,33.83
2023-02-11T10:28:53.295Z,29.50
2023-02-11T10:30:16.294Z,31.48
2023-02-11T10:31:27.159Z,33.13
2023-02-11T10:32:50.090Z,33.10
2023-02-11T10:34:10.539Z,34.10
2023-02-11T10:35:23.799Z,30.65
2023-02-11T10:36:35.320Z,33.20
2023-02-11T10:37:37.890Z,33.67
2023-02-11T10:38:40.854Z,33.90
2023-02-11T10:39:43.565Z,35.53
2023-02-11T10:40:46.322Z,31.08
2023-02-11T10:42:01.344Z,38.25
2023-02-11T10:43:12.065Z,30.98
2023-02-11T10:44:29.986Z,35.85
2023-02-11T10:45:38.589Z,33.70
2023-02-11T10:46:40.936Z,33.58
2023-02-11T10:47:44.170Z,33.17
2023-02-11T10:48:53.035Z,32.83
2023-02-11T10:50:03.407Z,30.38
2023-02-11T10:51:25.485Z,32.65
2023-02-11T10:52:30.891Z,32.92
2023-02-11T10:53:34.982Z,32.90
2023-02-11T10:54:37.378Z,35.28
2023-02-11T10:55:49.408Z,27.67
2023-02-11T10:56:59.852Z,31.65
2023-02-11T10:58:03.344Z,32.65
2023-02-11T10:59:14.676Z,33.40
2023-02-11T11:00:27.264Z,33.53
2023-02-11T11:01:52.730Z,33.53
2023-02-11T11:03:00.710Z,31.65
2023-02-11T11:04:03.151Z,33.22
2023-02-11T11:05:20.052Z,30.20
2023-02-11T11:06:31.947Z,33.42
2023-02-11T11:07:34.891Z,31.38
2023-02-11T11:08:48.013Z,32.72
2023-02-11T11:09:55.670Z,33.25
2023-02-11T11:11:09.991Z,34.10
2023-02-11T11:12:41.860Z,35.90
2023-02-11T11:13:53.782Z,32.03
2023-02-11T11:14:59.942Z,33.17
2023-02-11T11:16:14.658Z,29.05
2023-02-11T11:17:19.255Z,33.30
2023-02-11T11:18:23.462Z,32.42
2023-02-11T11:19:27.139Z,31.45
2023-02-11T11:20:33.752Z,33.00
2023-02-11T11:21:45.104Z,34.20
2023-02-11T11:22:50.033Z,36.95
2023-02-11T11:24:03.834Z,33.92
2023-02-11T11:25:20.341Z,35.70
2023-02-11T11:26:24.040Z,35.42
2023-02-11T11:27:26.509Z,36.03
2023-02-11T11:28:31.550Z,38.60
2023-02-11T11:29:46.037Z,39.75
2023-02-11T11:30:49.460Z,34.75
2023-02-11T11:31:57.608Z,35.13
2023-02-11T11:33:01.337Z,26.02
2023-02-11T11:34:23.493Z,28.65
2023-02-11T11:35:31.504Z,28.65
2023-02-11T11:36:39.928Z,32.28
2023-02-11T11:37:42.614Z,30.17
2023-02-11T11:38:52.662Z,33.25
2023-02-11T11:40:03.386Z,29.30
2023-02-11T11:41:26.504Z,30.42
2023-02-11T11:42:34.701Z,27.45
2023-02-11T11:43:37.891Z,31.33
2023-02-11T11:44:40.461Z,29.27
2023-02-11T11:45:58.578Z,33.47
2023-02-11T11:47:13.589Z,29.63
2023-02-11T11:48:24.333Z,31.02
2023-02-11T11:49:34.803Z,31.33
2023-02-11T11:52:27.094Z,29.40
2023-02-11T11:53:51.407Z,31.00
2023-02-11T11:55:05.234Z,27.27
2023-02-11T11:56:14.630Z,31.60
2023-02-11T11:57:22.805Z,30.27
2023-02-11T11:58:25.571Z,32.17
2023-02-11T11:59:29.831Z,32.58
2023-02-11T12:00:51.092Z,29.23
2023-02-11T12:02:27.910Z,33.45
2023-02-11T12:03:55.369Z,29.27
2023-02-11T12:05:18.394Z,33.28
2023-02-11T12:06:26.887Z,89.75
2023-02-11T12:07:59.751Z,32.95
2023-02-11T12:09:17.636Z,31.00
2023-02-11T12:10:32.390Z,30.73
2023-02-11T12:11:34.854Z,28.75
2023-02-11T12:13:03.855Z,31.55
2023-02-11T12:14:46.653Z,31.90
2023-02-11T12:16:16.449Z,31.52
2023-02-11T12:17:38.195Z,24.00
2023-02-11T12:18:50.074Z,30.02
2023-02-11T12:19:56.590Z,29.75
2023-02-11T12:21:10.163Z,29.38
2023-02-11T12:22:18.749Z,27.25
2023-02-11T12:23:42.469Z,31.23
2023-02-11T12:25:22.678Z,31.27
2023-02-11T12:26:49.502Z,32.10
2023-02-11T12:28:07.879Z,29.98
2023-02-11T12:29:26.585Z,32.72
2023-02-11T12:31:14.606Z,28.40
2023-02-11T12:32:34.056Z,27.40
2023-02-11T12:34:07.994Z,28.90
2023-02-11T12:35:19.951Z,25.95
2023-02-11T12:36:40.922Z,30.63
2023-02-11T12:37:53.130Z,28.83
2023-02-11T12:39:29.777Z,26.45
2023-02-11T12:40:41.914Z,30.33
2023-02-11T12:42:29.657Z,24.75
2023-02-11T12:43:41.209Z,36.53
2023-02-11T12:45:12.233Z,32.95
2023-02-11T12:46:25.072Z,32.78
2023-02-11T12:47:33.711Z,31.20
2023-02-11T12:48:51.427Z,31.13
2023-02-11T12:50:07.283Z,42.40
2023-02-11T12:51:21.741Z,31.13
2023-02-11T12:52:39.774Z,28.20
2023-02-11T12:53:51.696Z,28.83
2023-02-11T12:55:09.664Z,28.35
2023-02-11T12:56:24.329Z,23.17
2023-02-11T12:57:33.965Z,27.73
2023-02-11T12:58:45.011Z,25.85
2023-02-11T13:00:02.981Z,27.98
2023-02-11T13:01:16.386Z,26.67
2023-02-11T13:03:04.064Z,29.35
2023-02-11T13:04:09.938Z,27.05
2023-02-11T13:05:34.979Z,29.13
2023-02-11T13:06:43.230Z,26.42
2023-02-11T13:07:46.993Z,31.48
2023-02-11T13:09:02.425Z,32.97
2023-02-11T13:10:14.255Z,29.77
2023-02-11T13:11:41.531Z,30.08
2023-02-11T13:13:05.557Z,27.70
2023-02-11T13:14:22.611Z,33.03
2023-02-11T13:15:26.104Z,31.48
2023-02-11T13:16:38.811Z,34.08
2023-02-11T13:17:55.631Z,30.85
2023-02-11T13:19:04.083Z,30.20
2023-02-11T13:20:27.174Z,28.70
2023-02-11T13:21:38.847Z,31.52
2023-02-11T13:22:52.999Z,28.52
2023-02-11T13:24:22.693Z,37.95
2023-02-11T13:27:20.797Z,26.50
2023-02-11T13:28:24.613Z,29.30
2023-02-11T13:29:35.933Z,31.90
2023-02-11T13:30:47.472Z,34.78
2023-02-11T13:32:05.410Z,30.65
2023-02-11T13:33:21.555Z,31.13
2023-02-11T13:34:44.066Z,29.25
2023-02-11T13:36:07.078Z,28.90
2023-02-11T13:38:39.323Z,24.35
2023-02-11T13:39:42.151Z,29.05
2023-02-11T13:40:47.665Z,29.33
2023-02-11T13:41:52.886Z,27.95
2023-02-11T13:42:58.620Z,28.77
2023-02-11T13:44:09.171Z,27.25
2023-02-11T13:45:28.359Z,28.13
2023-02-11T13:46:56.127Z,24.38
2023-02-11T13:48:02.717Z,29.58
2023-02-11T13:49:05.958Z,26.65
2023-02-11T13:50:21.992Z,26.48
2023-02-11T13:51:38.104Z,27.25
2023-02-11T13:53:53.204Z,29.17
2023-02-11T13:54:59.755Z,33.85
2023-02-11T13:56:12.114Z,32.83
2023-02-11T13:57:21.071Z,30.33
2023-02-11T13:58:30.029Z,31.33
2023-02-11T13:59:33.552Z,27.55
2023-02-11T14:00:36.480Z,27.55
2023-02-11T14:02:23.531Z,29.33
2023-02-11T14:03:51.632Z,28.50
2023-02-11T14:05:22.591Z,24.63
2023-02-11T14:06:47.376Z,25.92
2023-02-11T14:08:30.575Z,27.95
2023-02-11T14:09:38.129Z,24.52
2023-02-11T14:10:44.445Z,26.58
2023-02-11T14:11:51.161Z,26.15
2023-02-11T14:13:22.089Z,29.48
2023-02-11T14:14:36.615Z,28.17
2023-02-11T14:15:41.957Z,31.75
2023-02-11T14:17:00.427Z,28.90
2023-02-11T14:18:24.768Z,29.48
2023-02-11T14:19:52.010Z,29.92
2023-02-11T14:21:12.388Z,29.20
2023-02-11T14:22:26.801Z,29.75
2023-02-11T14:23:29.619Z,31.58
2023-02-11T14:24:33.048Z,29.27
2023-02-11T14:25:39.057Z,28.45
2023-02-11T14:26:44.636Z,30.50
2023-02-11T14:27:52.193Z,29.75
2023-02-11T14:29:27.895Z,29.58
2023-02-11T14:31:16.468Z,27.83
2023-02-11T14:34:00.644Z,54.20
2023-02-11T14:35:26.242Z,47.30
2023-02-11T14:37:06.805Z,36.30
2023-02-11T14:38:32.205Z,28.98
2023-02-11T14:39:45.859Z,29.33
2023-02-11T14:41:02.159Z,31.25
2023-02-11T14:42:05.715Z,28.88
2023-02-11T14:43:26.352Z,28.05
2023-02-11T14:44:34.833Z,30.20
2023-02-11T14:45:38.876Z,28.65
2023-02-11T14:46:46.936Z,30.83
2023-02-11T14:47:56.376Z,29.48
2023-02-11T14:49:02.189Z,30.23
2023-02-11T14:50:15.076Z,31.92
2023-02-11T14:51:28.367Z,31.05
2023-02-11T14:52:36.822Z,30.52